createdAt,value
2019-04-14T00:02:38.222Z,102662.54
2019-04-14T00:05:10.392Z,102664.18
2019-04-14T00:07:40.572Z,102655.28
2019-04-14T00:10:11.546Z,102660.28
2019-04-14T00:12:42.618Z,102660.31
2019-04-14T00:15:25.718Z,102654.34
2019-04-14T00:17:45.632Z,102658.41
2019-04-14T00:20:16.407Z,102666.80
2019-04-14T00:22:46.819Z,102663.97
2019-04-14T00:25:17.410Z,102655.72
2019-04-14T00:27:48.077Z,102659.96
2019-04-14T00:30:18.875Z,102658.35
2019-04-14T00:32:50.920Z,102659.64
2019-04-14T00:35:23.090Z,102657.17
2019-04-14T00:37:55.478Z,102657.20
2019-04-14T00:40:34.674Z,102658.41
2019-04-14T00:43:07.011Z,102662.16
2019-04-14T00:45:46.469Z,102659.67
2019-04-14T00:48:16.158Z,102663.47
2019-04-14T00:50:43.476Z,102663.55
2019-04-14T00:53:14.255Z,102671.59
2019-04-14T00:55:44.353Z,102665.75
2019-04-14T00:58:14.849Z,102671.28
2019-04-14T01:00:45.124Z,102670.48
2019-04-14T01:03:15.538Z,102662.97
2019-04-14T01:05:45.939Z,102668.44
2019-04-14T01:08:16.347Z,102659.65
2019-04-14T01:10:46.024Z,102666.43
2019-04-14T01:13:15.810Z,102668.15
2019-04-14T01:15:56.816Z,102669.84
2019-04-14T01:18:16.909Z,102672.36
2019-04-14T01:20:47.096Z,102670.27
2019-04-14T01:23:17.162Z,102669.44
2019-04-14T01:25:47.702Z,102672.81
2019-04-14T01:28:17.967Z,102668.62
2019-04-14T01:30:49.035Z,102666.95
2019-04-14T01:33:20.565Z,102667.38
2019-04-14T01:35:50.990Z,102670.72
2019-04-14T01:38:21.198Z,102669.47
2019-04-14T01:40:51.046Z,102673.20
2019-04-14T01:43:21.360Z,102672.79
2019-04-14T01:46:03.980Z,102669.42
2019-04-14T01:48:23.504Z,102671.95
2019-04-14T01:50:58.391Z,102669.81
2019-04-14T01:53:35.767Z,102671.49
2019-04-14T01:56:07.999Z,102666.81
2019-04-14T01:58:45.262Z,102670.11
2019-04-14T02:01:17.064Z,102676.00
2019-04-14T02:03:47.751Z,102675.55
2019-04-14T02:06:17.967Z,102676.80
2019-04-14T02:08:48.025Z,102674.72
2019-04-14T02:11:20.457Z,102670.96
2019-04-14T02:13:50.827Z,102669.31
2019-04-14T02:16:30.289Z,102669.77
2019-04-14T02:18:53.547Z,102675.29
2019-04-14T02:21:23.723Z,102674.46
2019-04-14T02:23:54.014Z,102672.41
2019-04-14T02:26:24.080Z,102670.73
2019-04-14T02:28:54.904Z,102669.05
2019-04-14T02:31:48.495Z,102676.20
2019-04-14T02:34:28.403Z,102674.09
2019-04-14T02:36:57.114Z,102674.48
2019-04-14T02:44:30.609Z,102686.67
2019-04-14T02:52:04.764Z,102689.56
2019-04-14T02:54:45.247Z,102690.41
2019-04-14T02:57:12.553Z,102688.30
2019-04-14T02:59:36.475Z,102693.78
2019-04-14T03:02:23.233Z,102696.29
2019-04-14T03:07:14.400Z,102693.36
2019-04-14T03:09:45.445Z,102688.30
2019-04-14T03:12:16.894Z,102698.38
2019-04-14T03:14:47.861Z,102697.13
2019-04-14T03:20:08.510Z,102697.92
2019-04-14T03:24:50.275Z,102703.78
2019-04-14T03:27:45.877Z,102702.09
2019-04-14T03:30:39.296Z,102707.53
2019-04-14T03:33:13.673Z,102705.43
2019-04-14T03:35:35.741Z,102706.66
2019-04-14T03:37:59.432Z,102712.14
2019-04-14T03:40:21.668Z,102713.84
2019-04-14T03:45:28.130Z,102715.05
2019-04-14T03:48:01.490Z,102716.17
2019-04-14T03:50:21.549Z,102722.33
2019-04-14T03:53:03.255Z,102721.37
2019-04-14T03:55:12.756Z,102725.78
2019-04-14T03:57:31.206Z,102728.95
2019-04-14T04:00:01.305Z,102723.41
2019-04-14T04:02:31.535Z,102725.44
2019-04-14T04:05:02.217Z,102726.23
2019-04-14T04:07:32.274Z,102728.41
2019-04-14T04:10:03.638Z,102731.29
2019-04-14T04:12:33.604Z,102727.95
2019-04-14T04:15:03.968Z,102729.22
2019-04-14T04:17:36.280Z,102737.24
2019-04-14T04:20:09.022Z,102741.45
2019-04-14T04:22:43.435Z,102737.61
2019-04-14T04:25:27.269Z,102740.09
2019-04-14T04:28:03.969Z,102748.53
2019-04-14T04:30:41.261Z,102746.08
2019-04-14T04:33:15.530Z,102749.95
2019-04-14T04:35:47.897Z,102757.17
2019-04-14T04:38:22.420Z,102758.94
2019-04-14T04:40:52.893Z,102760.67
2019-04-14T04:43:23.330Z,102764.47
2019-04-14T04:45:53.806Z,102769.17
2019-04-14T04:48:24.185Z,102767.97
2019-04-14T04:50:54.215Z,102767.19
2019-04-14T04:53:24.488Z,102773.13
2019-04-14T04:55:54.639Z,102766.05
2019-04-14T04:58:24.392Z,102765.26
2019-04-14T05:00:55.893Z,102773.72
2019-04-14T05:03:25.469Z,102769.59
2019-04-14T05:06:29.440Z,102773.42
2019-04-14T05:09:07.929Z,102773.91
2019-04-14T05:11:45.258Z,102778.19
2019-04-14T05:14:17.307Z,102778.23
2019-04-14T05:16:47.001Z,102782.91
2019-04-14T05:19:23.614Z,102785.45
2019-04-14T05:21:47.966Z,102784.22
2019-04-14T05:24:17.932Z,102786.37
2019-04-14T05:26:48.472Z,102789.36
2019-04-14T05:29:19.014Z,102793.22
2019-04-14T05:31:49.047Z,102791.56
2019-04-14T05:34:19.440Z,102793.67
2019-04-14T05:36:52.063Z,102797.50
2019-04-14T05:39:22.076Z,102800.89
2019-04-14T05:42:00.333Z,102802.17
2019-04-14T05:44:23.876Z,102803.89
2019-04-14T05:46:53.567Z,102805.17
2019-04-14T05:49:31.506Z,102807.30
2019-04-14T05:51:57.508Z,102802.27
2019-04-14T05:54:27.507Z,102804.39
2019-04-14T05:57:00.107Z,102804.00
2019-04-14T05:59:30.791Z,102802.33
2019-04-14T06:02:00.425Z,102809.07
2019-04-14T06:04:31.012Z,102803.61
2019-04-14T06:07:00.743Z,102809.11
2019-04-14T06:09:30.533Z,102807.01
2019-04-14T06:12:00.637Z,102812.92
2019-04-14T06:14:30.460Z,102817.19
2019-04-14T06:17:00.073Z,102811.73
2019-04-14T06:19:37.180Z,102825.61
2019-04-14T06:22:01.052Z,102818.90
2019-04-14T06:24:30.664Z,102825.61
2019-04-14T06:27:00.292Z,102824.38
2019-04-14T06:29:30.155Z,102832.81
2019-04-14T06:32:04.148Z,102826.10
2019-04-14T06:34:35.472Z,102828.64
2019-04-14T06:37:24.576Z,102832.42
2019-04-14T06:39:55.841Z,102833.27
2019-04-14T06:42:25.460Z,102838.75
2019-04-14T06:44:55.123Z,102829.91
2019-04-14T06:47:25.624Z,102829.48
2019-04-14T06:49:55.811Z,102839.58
2019-04-14T06:52:25.500Z,102836.66
2019-04-14T06:54:55.884Z,102841.27
2019-04-14T06:57:25.580Z,102840.47
2019-04-14T06:59:56.136Z,102838.80
2019-04-14T07:02:25.746Z,102839.67
2019-04-14T07:04:55.369Z,102847.66
2019-04-14T07:07:25.390Z,102846.41
2019-04-14T07:09:55.013Z,102845.16
2019-04-14T07:12:24.631Z,102847.27
2019-04-14T07:14:54.565Z,102851.53
2019-04-14T07:17:24.191Z,102852.81
2019-04-14T07:20:01.855Z,102859.13
2019-04-14T07:22:25.423Z,102859.16
2019-04-14T07:24:55.103Z,102857.91
2019-04-14T07:27:25.196Z,102864.22
2019-04-14T07:29:59.206Z,102861.72
2019-04-14T07:32:42.497Z,102866.39
2019-04-14T07:35:16.732Z,102866.38
2019-04-14T07:37:50.951Z,102864.31
2019-04-14T07:40:22.215Z,102862.21
2019-04-14T07:42:53.541Z,102867.25
2019-04-14T07:45:24.799Z,102862.63
2019-04-14T07:47:56.252Z,102865.59
2019-04-14T07:50:40.675Z,102868.11
2019-04-14T07:53:26.959Z,102867.28
2019-04-14T07:56:10.226Z,102871.48
2019-04-14T07:58:44.532Z,102869.83
2019-04-14T08:01:18.560Z,102866.43
2019-04-14T08:04:05.691Z,102875.30
2019-04-14T08:06:38.267Z,102874.05
2019-04-14T08:09:07.593Z,102876.59
2019-04-14T08:11:37.777Z,102879.12
2019-04-14T08:14:08.301Z,102878.30
2019-04-14T08:16:37.917Z,102878.72
2019-04-14T08:19:07.812Z,102882.94
2019-04-14T08:21:37.575Z,102885.50
2019-04-14T08:24:07.627Z,102880.42
2019-04-14T08:26:37.245Z,102885.09
2019-04-14T08:29:06.901Z,102882.96
2019-04-14T08:31:36.569Z,102879.61
2019-04-14T08:34:06.151Z,102880.05
2019-04-14T08:36:36.484Z,102877.55
2019-04-14T08:39:08.060Z,102881.34
2019-04-14T08:41:44.168Z,102873.33
2019-04-14T08:44:20.877Z,102872.91
2019-04-14T08:47:09.218Z,102878.39
2019-04-14T08:49:46.087Z,102880.09
2019-04-14T08:52:24.221Z,102874.19
2019-04-14T08:54:59.469Z,102876.30
2019-04-14T08:57:30.796Z,102875.05
2019-04-14T09:00:18.311Z,102878.84
2019-04-14T09:02:52.731Z,102882.23
2019-04-14T09:05:40.341Z,102876.75
2019-04-14T09:08:14.439Z,102880.95
2019-04-14T09:10:45.705Z,102882.23
2019-04-14T09:13:15.692Z,102885.17
2019-04-14T09:15:45.507Z,102881.81
2019-04-14T09:18:15.118Z,102891.92
2019-04-14T09:20:52.109Z,102879.70
2019-04-14T09:23:17.502Z,102888.97
2019-04-14T09:25:48.901Z,102895.72
2019-04-14T09:28:18.608Z,102894.91
2019-04-14T09:30:50.110Z,102886.88
2019-04-14T09:33:20.094Z,102889.39
2019-04-14T09:35:50.103Z,102894.03
2019-04-14T09:38:19.754Z,102892.34
2019-04-14T09:40:49.938Z,102899.95
2019-04-14T09:43:19.553Z,102900.39
2019-04-14T09:45:50.746Z,102898.67
2019-04-14T09:48:20.354Z,102896.59
2019-04-14T09:50:50.044Z,102902.48
2019-04-14T09:53:19.755Z,102900.79
2019-04-14T09:55:49.450Z,102906.30
2019-04-14T09:58:19.065Z,102905.02
2019-04-14T10:00:48.778Z,102907.15
2019-04-14T10:03:18.429Z,102900.80
2019-04-14T10:05:48.015Z,102898.26
2019-04-14T10:08:18.150Z,102898.69
2019-04-14T10:10:49.147Z,102901.23
2019-04-14T10:13:19.139Z,102908.39
2019-04-14T10:15:48.794Z,102901.20
2019-04-14T10:18:18.428Z,102902.89
2019-04-14T10:20:49.765Z,102906.28
2019-04-14T10:23:19.562Z,102901.61
2019-04-14T10:25:51.471Z,102903.30
2019-04-14T10:28:21.343Z,102905.84
2019-04-14T10:30:51.746Z,102903.28
2019-04-14T10:33:21.684Z,102902.03
2019-04-14T10:35:51.335Z,102906.67
2019-04-14T10:38:21.338Z,102910.88
2019-04-14T10:40:50.968Z,102918.48
2019-04-14T10:43:20.592Z,102920.16
2019-04-14T10:45:50.296Z,102918.45
2019-04-14T10:48:20.049Z,102920.16
2019-04-14T10:50:49.933Z,102922.28
2019-04-14T10:53:19.583Z,102918.88
2019-04-14T10:55:49.199Z,102925.63
2019-04-14T10:58:18.819Z,102924.78
2019-04-14T11:00:48.846Z,102922.23
2019-04-14T11:03:18.452Z,102918.43
2019-04-14T11:05:49.708Z,102933.20
2019-04-14T11:08:19.364Z,102924.36
2019-04-14T11:10:49.490Z,102929.84
2019-04-14T11:13:19.103Z,102925.59
2019-04-14T11:15:48.756Z,102924.76
2019-04-14T11:18:18.368Z,102927.70
2019-04-14T11:20:48.724Z,102923.89
2019-04-14T11:23:18.410Z,102920.92
2019-04-14T11:25:48.415Z,102922.99
2019-04-14T11:28:18.030Z,102920.88
2019-04-14T11:30:47.760Z,102925.07
2019-04-14T11:33:21.973Z,102920.81
2019-04-14T11:36:02.485Z,102913.13
2019-04-14T11:38:34.014Z,102924.09
2019-04-14T11:41:08.073Z,102915.60
2019-04-14T11:43:38.091Z,102921.48
2019-04-14T11:46:07.817Z,102926.09
2019-04-14T11:48:37.512Z,102915.08
2019-04-14T11:51:07.155Z,102926.42
2019-04-14T11:53:36.788Z,102928.03
2019-04-14T11:56:06.470Z,102934.34
2019-04-14T11:58:36.366Z,102935.52
2019-04-14T12:01:10.646Z,102929.09
2019-04-14T12:03:51.158Z,102934.05
2019-04-14T12:06:22.547Z,102933.89
2019-04-14T12:08:56.531Z,102932.48
2019-04-14T12:11:26.239Z,102936.88
2019-04-14T12:13:56.747Z,102945.41
2019-04-14T12:16:26.376Z,102946.88
2019-04-14T12:18:58.450Z,102945.09
2019-04-14T12:21:28.078Z,102947.17
2019-04-14T12:23:58.043Z,102951.94
2019-04-14T12:26:27.686Z,102951.55
2019-04-14T12:28:59.176Z,102956.42
2019-04-14T12:31:29.186Z,102955.41
2019-04-14T12:33:58.868Z,102952.08
2019-04-14T12:36:28.867Z,102955.48
2019-04-14T12:38:58.525Z,102963.88
2019-04-14T12:41:35.677Z,102961.33
2019-04-14T12:44:12.678Z,102960.38
2019-04-14T12:46:56.034Z,102962.82
2019-04-14T12:49:27.306Z,102972.87
2019-04-14T12:52:01.626Z,102965.48
2019-04-14T12:54:31.299Z,102974.26
2019-04-14T12:57:01.112Z,102962.72
2019-04-14T12:59:32.858Z,102966.50
2019-04-14T13:02:06.646Z,102962.44
2019-04-14T13:04:36.289Z,102964.12
2019-04-14T13:07:06.175Z,102971.48
2019-04-14T13:09:36.501Z,102967.36
2019-04-14T13:12:06.363Z,102955.19
2019-04-14T13:14:36.005Z,102957.29
2019-04-14T13:17:05.742Z,102956.97
2019-04-14T13:19:35.358Z,102957.03
2019-04-14T13:22:05.061Z,102956.45
2019-04-14T13:24:35.555Z,102960.53
2019-04-14T13:27:05.647Z,102954.39
2019-04-14T13:29:35.274Z,102954.59
2019-04-14T13:32:06.180Z,102952.06
2019-04-14T13:34:35.809Z,102952.75
2019-04-14T13:37:05.640Z,102948.34
2019-04-14T13:39:35.278Z,102944.06
2019-04-14T13:42:04.975Z,102951.89
2019-04-14T13:44:34.768Z,102943.28
2019-04-14T13:47:04.577Z,102948.70
2019-04-14T13:49:34.500Z,102941.72
2019-04-14T13:52:04.289Z,102938.63
2019-04-14T13:54:33.958Z,102947.42
2019-04-14T13:57:03.640Z,102934.50
2019-04-14T13:59:33.327Z,102934.00
2019-04-14T14:02:03.289Z,102935.64
2019-04-14T14:04:34.356Z,102935.13
2019-04-14T14:07:04.652Z,102935.20
2019-04-14T14:09:34.444Z,102938.25
2019-04-14T14:12:05.736Z,102932.58
2019-04-14T14:14:42.733Z,102927.05
2019-04-14T14:17:17.040Z,102923.09
2019-04-14T14:19:51.353Z,102928.02
2019-04-14T14:22:22.609Z,102924.94
2019-04-14T14:24:53.948Z,102922.30
2019-04-14T14:27:24.010Z,102924.34
2019-04-14T14:29:53.624Z,102931.23
2019-04-14T14:32:25.161Z,102939.07
2019-04-14T14:34:54.820Z,102925.31
2019-04-14T14:37:24.515Z,102928.58
2019-04-14T14:39:54.133Z,102930.80
2019-04-14T14:42:23.815Z,102925.57
2019-04-14T14:45:00.804Z,102927.59
2019-04-14T14:47:32.097Z,102927.70
2019-04-14T14:50:06.075Z,102924.33
2019-04-14T14:52:38.376Z,102920.74
2019-04-14T14:55:08.408Z,102921.20
2019-04-14T14:57:38.055Z,102918.44
2019-04-14T15:00:13.210Z,102913.91
2019-04-14T15:02:42.838Z,102920.78
2019-04-14T15:05:14.166Z,102915.41
2019-04-14T15:07:43.879Z,102924.06
2019-04-14T15:10:13.443Z,102928.53
2019-04-14T15:12:43.119Z,102923.80
2019-04-14T15:15:12.941Z,102927.82
2019-04-14T15:17:42.703Z,102924.07
2019-04-14T15:20:12.290Z,102923.55
2019-04-14T15:22:42.328Z,102926.45
2019-04-14T15:25:11.948Z,102923.17
2019-04-14T15:27:41.648Z,102934.74
2019-04-14T15:30:13.506Z,102929.69
2019-04-14T15:32:43.397Z,102924.70
2019-04-14T15:35:13.123Z,102925.84
2019-04-14T15:37:42.859Z,102929.30
2019-04-14T15:40:12.690Z,102928.63
2019-04-14T15:42:42.747Z,102929.08
2019-04-14T15:45:14.129Z,102929.08
2019-04-14T15:47:44.687Z,102921.80
2019-04-14T15:50:14.374Z,102921.05
2019-04-14T15:52:44.058Z,102926.36
2019-04-14T15:55:14.786Z,102922.98
2019-04-14T15:57:46.187Z,102918.73
2019-04-14T16:00:32.520Z,102920.66
2019-04-14T16:03:03.788Z,102914.35
2019-04-14T16:05:43.856Z,102918.53
2019-04-14T16:08:17.877Z,102910.61
2019-04-14T16:10:54.838Z,102916.27
2019-04-14T16:13:42.711Z,102919.26
2019-04-14T16:16:18.927Z,102919.14
2019-04-14T16:18:51.781Z,102916.55
2019-04-14T16:21:22.187Z,102916.70
2019-04-14T16:23:51.814Z,102918.42
2019-04-14T16:26:25.856Z,102919.64
2019-04-14T16:28:57.177Z,102922.88
2019-04-14T16:31:44.643Z,102919.70
2019-04-14T16:34:15.978Z,102912.28
2019-04-14T16:36:47.234Z,102918.86
2019-04-14T16:39:16.940Z,102915.66
2019-04-14T16:41:46.862Z,102921.38
2019-04-14T16:44:16.500Z,102919.45
2019-04-14T16:46:46.139Z,102914.50
2019-04-14T16:49:15.848Z,102914.59
2019-04-14T16:51:50.077Z,102915.52
2019-04-14T16:54:37.773Z,102912.16
2019-04-14T16:57:12.083Z,102916.02
2019-04-14T16:59:41.897Z,102916.27
2019-04-14T17:02:11.596Z,102920.16
2019-04-14T17:04:41.303Z,102915.96
2019-04-14T17:07:11.732Z,102918.61
2019-04-14T17:09:41.509Z,102913.17
2019-04-14T17:12:11.185Z,102918.67
2019-04-14T17:14:42.527Z,102920.44
2019-04-14T17:17:30.187Z,102919.66
2019-04-14T17:20:10.215Z,102918.84
2019-04-14T17:22:57.657Z,102918.88
2019-04-14T17:25:28.945Z,102919.35
2019-04-14T17:28:12.555Z,102923.22
2019-04-14T17:30:46.794Z,102922.86
2019-04-14T17:33:20.941Z,102933.94
2019-04-14T17:36:07.503Z,102940.73
2019-04-14T17:38:44.793Z,102934.84
2019-04-14T17:41:16.122Z,102942.91
2019-04-14T17:43:50.091Z,102936.13
2019-04-14T17:46:21.437Z,102940.41
2019-04-14T17:49:01.637Z,102948.05
2019-04-14T17:51:32.947Z,102944.27
2019-04-14T17:54:04.297Z,102950.23
2019-04-14T17:56:35.615Z,102940.49
2019-04-14T17:59:09.660Z,102952.36
2019-04-14T18:01:42.521Z,102949.81
2019-04-14T18:04:22.793Z,102950.69
2019-04-14T18:06:54.155Z,102957.46
2019-04-14T18:09:31.385Z,102960.91
2019-04-14T18:12:02.647Z,102954.58
2019-04-14T18:14:36.305Z,102957.11
2019-04-14T18:17:10.080Z,102964.33
2019-04-14T18:19:49.974Z,102962.63
2019-04-14T18:22:19.749Z,102968.99
2019-04-14T18:24:49.455Z,102968.15
2019-04-14T18:27:19.069Z,102972.37
2019-04-14T18:29:50.372Z,102969.44
2019-04-14T18:32:24.489Z,102977.05
2019-04-14T18:35:01.733Z,102977.91
2019-04-14T18:37:49.241Z,102975.81
2019-04-14T18:40:23.253Z,102976.28
2019-04-14T18:43:09.803Z,102973.74
2019-04-14T18:45:42.890Z,102970.39
2019-04-14T18:48:23.061Z,102972.92
2019-04-14T18:51:09.286Z,102983.50
2019-04-14T18:53:52.488Z,102986.46
2019-04-14T18:56:26.506Z,102989.84
2019-04-14T18:59:00.692Z,102989.00
2019-04-14T19:01:40.841Z,102990.28
2019-04-14T19:04:10.451Z,102986.46
2019-04-14T19:06:40.334Z,102987.75
2019-04-14T19:09:10.876Z,102978.82
2019-04-14T19:11:59.149Z,102983.89
2019-04-14T19:14:33.228Z,102984.34
2019-04-14T19:17:06.917Z,102983.90
2019-04-14T19:19:38.175Z,102990.26
2019-04-14T19:22:07.871Z,102987.70
2019-04-14T19:24:37.483Z,102988.16
2019-04-14T19:27:07.132Z,102985.18
2019-04-14T19:29:36.937Z,102990.70
2019-04-14T19:32:06.555Z,102997.45
2019-04-14T19:34:36.169Z,102997.01
2019-04-14T19:37:05.846Z,102990.27
2019-04-14T19:39:35.449Z,102992.81
2019-04-14T19:42:05.125Z,102993.66
2019-04-14T19:44:34.776Z,102999.14
2019-04-14T19:47:04.387Z,102990.26
2019-04-14T19:49:34.012Z,102999.13
2019-04-14T19:52:03.763Z,103005.48
2019-04-14T19:54:33.952Z,103005.89
2019-04-14T19:57:03.629Z,103008.84
2019-04-14T19:59:33.329Z,103006.73
2019-04-14T20:02:03.531Z,103005.46
2019-04-14T20:04:33.227Z,103004.61
2019-04-14T20:07:02.910Z,103010.95
2019-04-14T20:09:32.562Z,102999.55
2019-04-14T20:12:03.085Z,103009.27
2019-04-14T20:14:32.765Z,103010.95
2019-04-14T20:17:07.036Z,103013.05
2019-04-14T20:19:53.324Z,103013.06
2019-04-14T20:22:40.780Z,103012.63
2019-04-14T20:25:33.579Z,103015.16
2019-04-14T20:28:00.061Z,103013.89
2019-04-14T20:30:33.832Z,103015.56
2019-04-14T20:33:03.474Z,103017.69
2019-04-14T20:35:33.811Z,103014.72
2019-04-14T20:38:03.814Z,103012.19
2019-04-14T20:40:33.497Z,103008.41
2019-04-14T20:43:03.108Z,103009.23
2019-04-14T20:45:32.797Z,103015.58
2019-04-14T20:48:02.428Z,103010.92
2019-04-14T20:50:32.046Z,103012.19
2019-04-14T20:53:01.694Z,103014.28
2019-04-14T20:55:31.304Z,103013.45
2019-04-14T20:58:00.924Z,103013.43
2019-04-14T21:00:30.591Z,103014.26
2019-04-14T21:03:01.868Z,103015.53
2019-04-14T21:05:51.479Z,103012.92
2019-04-14T21:08:22.418Z,103019.66
2019-04-14T21:10:53.690Z,103022.14
2019-04-14T21:13:25.900Z,103020.45
2019-04-14T21:16:12.953Z,103027.16
2019-04-14T21:18:44.698Z,103026.73
2019-04-14T21:21:18.934Z,103023.74
2019-04-14T21:24:06.707Z,103028.25
2019-04-14T21:26:47.129Z,103029.84
2019-04-14T21:29:34.252Z,103030.20
2019-04-14T21:32:05.546Z,103029.73
2019-04-14T21:34:48.824Z,103031.33
2019-04-14T21:37:36.249Z,103027.48
2019-04-14T21:40:12.091Z,103035.48
2019-04-14T21:42:42.797Z,103032.59
2019-04-14T21:45:12.515Z,103025.86
2019-04-14T21:47:42.424Z,103029.28
2019-04-14T21:50:12.188Z,103025.95
2019-04-14T21:52:43.458Z,103031.00
2019-04-14T21:55:13.580Z,103029.32
2019-04-14T21:57:44.862Z,103033.12
2019-04-14T22:00:20.638Z,103034.38
2019-04-14T22:03:03.686Z,103037.72
2019-04-14T22:05:34.978Z,103034.69
2019-04-14T22:08:09.021Z,103036.66
2019-04-14T22:10:43.033Z,103038.13
2019-04-14T22:13:12.804Z,103035.83
2019-04-14T22:15:42.495Z,103044.20
2019-04-14T22:18:12.230Z,103038.03
2019-04-14T22:20:41.839Z,103046.63
2019-04-14T22:23:15.667Z,103040.02
2019-04-14T22:25:45.928Z,103041.75
2019-04-14T22:28:15.597Z,103038.86
2019-04-14T22:30:45.887Z,103040.14
2019-04-14T22:33:17.320Z,103045.69
2019-04-14T22:35:47.223Z,103041.88
2019-04-14T22:38:17.391Z,103038.98
2019-04-14T22:40:47.079Z,103044.69
2019-04-14T22:43:16.708Z,103047.20
2019-04-14T22:45:46.395Z,103048.06
2019-04-14T22:48:16.049Z,103048.50
2019-04-14T22:50:45.705Z,103043.87
2019-04-14T22:53:15.399Z,103040.94
2019-04-14T22:55:45.927Z,103045.12
2019-04-14T22:58:15.574Z,103040.09
2019-04-14T23:00:46.882Z,103038.38
2019-04-14T23:03:18.228Z,103042.16
2019-04-14T23:05:52.149Z,103040.49
2019-04-14T23:08:39.792Z,103038.79
2019-04-14T23:11:11.119Z,103040.84
2019-04-14T23:13:54.422Z,103044.11
2019-04-14T23:16:37.649Z,103040.70
2019-04-14T23:19:18.218Z,103045.38
2019-04-14T23:21:58.455Z,103046.63
2019-04-14T23:24:29.755Z,103044.02
2019-04-14T23:26:59.379Z,103044.48
2019-04-14T23:29:29.009Z,103044.80
2019-04-14T23:31:58.739Z,103046.09
2019-04-14T23:34:28.369Z,103043.77
2019-04-14T23:36:58.000Z,103048.69
2019-04-14T23:39:27.691Z,103045.73
2019-04-14T23:41:57.385Z,103046.50
2019-04-14T23:44:27.776Z,103048.02
2019-04-14T23:46:57.794Z,103046.42
2019-04-14T23:49:27.889Z,103042.68
2019-04-14T23:51:57.584Z,103051.17
2019-04-14T23:54:27.267Z,103046.98
2019-04-14T23:57:05.427Z,103048.69
2019-04-14T23:59:29.648Z,103047.43
